Relevés horaires St-Hubert (Belgique)


Relevés horaires à St-Hubert - Mardi 24 Juill. 2018
Heure UTC1 Température [°C] Vent [km/h] Hum. [%] Pres.4 [hPa] Visi. [Km] Nébu. [octa] Préc.5 [mm] Cond.
2m. Res. Ros. Dir.2 Vit. Moy. Raf.3
23:00 22.2 22.2 12.9 NNO 0.0 0.0 0.0 56 1014.1(0.4/3h) 35 0/8 -- --
22:00 20.1 20.1 14.1 NNO 0.0 0.0 0.0 68 1014.5(0.6/3h) 40 0/8 -- --
21:00 21.0 21.0 11.7 NNO 0.0 0.0 0.0 55 1014.3(0.8/3h) 45 0/8 -- --
20:00 24.6 24.6 11.7 NNO 0.0 0.0 0.0 44 1013.2(0.6/3h) 40 0/8 -- --
19:00 25.0 25.0 13.1 NNO 0.0 0.0 0.0 48 1012.8(0.2/3h) 35 0/8 -- --
18:00 26.8 26.8 11.7 NNO 0.0 0.0 0.0 39 1012.2(-0.2/3h) 30 0/8 0/12h
--
17:00 27.3 27.3 11.7 NNO 0.0 0.0 0.0 38 1012.1(-0.5/3h) 29 0/8 -- --
16:00 27.9 27.9 11.4 NNO 0.0 0.0 0.0 36 1012(-0.7/3h) 35 0/8 -- --
15:00 27.2 27.2 11.1 NNO 0.0 0.0 0.0 37 1012.4(-0.9/3h) 35 0/8 -- --
14:00 25.9 25.9 11.9 NNO 0.0 0.0 0.0 42 1012.9(-0.7/3h) 35 0/8 -- --
13:00 25.6 25.6 11.4 NNO 0.0 0.0 0.0 41 1013.2(-0.9/3h) 35 0/8 -- --
12:00 24.7 24.7 12.9 NNO 0.0 0.0 0.0 48 1013.8(-0.6/3h) 35 0/8 0/6h
--
11:00 25.5 25.5 14.4 NNO 0.0 0.0 0.0 50 1013.7(-0.6/3h) 35 0/8 -- --
10:00 23.9 23.9 13.0 NNO 0.0 0.0 0.0 50 1014.5(-0.3/3h) 35 0/8 -- --
09:00 24.8 24.8 13.7 NNO 0.0 0.0 0.0 50 1014.4(0.1/3h) 30 0/8 -- --
08:00 23.6 23.6 12.9 NNO 0.0 0.0 0.0 51 1014.8(0.2/3h) 35 0/8 -- --
07:00 22.8 22.8 13.4 NNO 0.0 0.0 0.0 55 1015.1(-0.2/3h) 30 0/8 -- --
06:00 21.0 21.0 13.2 NNO 0.0 0.0 0.0 61 1015.3(-0.1/3h) 35 0/8 0/12h
--
05:00 19.1 19.1 12.7 NNO 0.0 0.0 0.0 66 1015.5(-0.5/3h) 30 0/8 -- --
04:00 18.4 18.4 12.7 NNO 0.0 0.0 0.0 69 1015.9(-0.7/3h) 35 0/8 -- --
03:00 18.3 18.3 13.0 NNO 0.0 0.0 0.0 71 1016(-1.0/3h) 35 0/8 -- --
02:00 18.3 18.3 13.4 NNO 0.0 0.0 0.0 73 1016.2(-1.1/3h) 40 0/8 -- --
01:00 17.4 17.4 13.4 NNO 0.0 0.0 0.0 77 1016.8(-0.7/3h) 45 0/8 -- --
00:00 17.5 17.5 13.2 NNO 0.0 0.0 0.0 76 1017.2(-0.3/3h) 45 0/8 0/6h
0/24h
--

1 Coordinated Universal Time. Actuellement il est 13:00 locale et 11:00 UTC.

2 Le vent souffle depuis la direction indiquée vers la direction oposée.

3 Les rafales max. sont disponible 40 min après l'heure du relevé.

4 Pour les stations d'altitude (plus de 600m) le géopotentiel du niveau le plus proche de la pression obligatoire est indiqué.

5 Les stations disposant d'un diffuseur peuvent indiquer "trace". Cela signifie que des précipitations ont touchés le sol mais que la quantité est inférieure à 0.1 mm.

Récapitulatif de la journée
Température [°C] Vent [km/h] Ensoleillement4 [h] Precipitations totale5 [mm] Pression [Hpa]
Min1 Max.2 Moy.3 Max. Min Max.
17.0 28.3 0 0.0 0 h 0 min 0 1012.0 1017.2

1 Température minimale relevée entre 18:00 UTC la veille et 18:00 UTC le jour donné.

2 Température maximale relevée entre 06:00 UTC le jour donné et 06:00 UTC le lendemain.

3 Vent moyen de la journée basé sur les relevés horaires.

4 Ensoleillement en heures relevé entre 06:00 UTC la veille et 06:00 UTC le jour donné.

5 Précipitations totales tombées entre 06:00 UTC la jour donné et 06:00 UTC le lendemain.

Graphiques horaires